sensor_id;sensor_type;location;lat;lon;timestamp;temperature;humidity
4518;DHT22;2271;49.464;11.070;2022-11-18T00:01:20;9.50;99.90
4518;DHT22;2271;49.464;11.070;2022-11-18T00:03:47;9.60;99.90
4518;DHT22;2271;49.464;11.070;2022-11-18T00:06:18;9.60;99.90
4518;DHT22;2271;49.464;11.070;2022-11-18T00:08:44;9.60;99.90
4518;DHT22;2271;49.464;11.070;2022-11-18T00:11:14;9.60;99.90
4518;DHT22;2271;49.464;11.070;2022-11-18T00:13:59;9.60;99.90
4518;DHT22;2271;49.464;11.070;2022-11-18T00:16:44;9.60;99.90
4518;DHT22;2271;49.464;11.070;2022-11-18T00:19:10;9.60;99.90
4518;DHT22;2271;49.464;11.070;2022-11-18T00:21:36;9.60;99.90
4518;DHT22;2271;49.464;11.070;2022-11-18T00:24:01;9.60;99.90
4518;DHT22;2271;49.464;11.070;2022-11-18T00:26:27;9.60;99.90
4518;DHT22;2271;49.464;11.070;2022-11-18T00:28:52;9.60;99.90
4518;DHT22;2271;49.464;11.070;2022-11-18T00:31:18;9.60;99.90
4518;DHT22;2271;49.464;11.070;2022-11-18T00:33:43;9.50;99.90
4518;DHT22;2271;49.464;11.070;2022-11-18T00:36:11;9.60;99.90
4518;DHT22;2271;49.464;11.070;2022-11-18T00:38:37;9.50;99.90
4518;DHT22;2271;49.464;11.070;2022-11-18T00:41:05;9.50;99.90
4518;DHT22;2271;49.464;11.070;2022-11-18T00:43:31;9.50;99.90
4518;DHT22;2271;49.464;11.070;2022-11-18T00:45:57;9.50;99.90
4518;DHT22;2271;49.464;11.070;2022-11-18T00:48:23;9.50;99.90
4518;DHT22;2271;49.464;11.070;2022-11-18T00:50:54;9.50;99.90
4518;DHT22;2271;49.464;11.070;2022-11-18T00:53:22;9.50;99.90
4518;DHT22;2271;49.464;11.070;2022-11-18T00:55:48;9.50;99.90
4518;DHT22;2271;49.464;11.070;2022-11-18T00:58:14;9.40;99.90
4518;DHT22;2271;49.464;11.070;2022-11-18T01:00:41;9.40;99.90
4518;DHT22;2271;49.464;11.070;2022-11-18T01:03:07;9.50;99.90
4518;DHT22;2271;49.464;11.070;2022-11-18T01:05:33;9.50;99.90
4518;DHT22;2271;49.464;11.070;2022-11-18T01:07:58;9.40;99.90
4518;DHT22;2271;49.464;11.070;2022-11-18T01:10:24;9.40;99.90
4518;DHT22;2271;49.464;11.070;2022-11-18T01:12:50;9.40;99.90
4518;DHT22;2271;49.464;11.070;2022-11-18T01:15:39;9.40;99.90
4518;DHT22;2271;49.464;11.070;2022-11-18T01:18:04;9.40;99.90
4518;DHT22;2271;49.464;11.070;2022-11-18T01:20:31;9.40;99.90
4518;DHT22;2271;49.464;11.070;2022-11-18T01:22:57;9.40;99.90
4518;DHT22;2271;49.464;11.070;2022-11-18T01:25:23;9.30;99.90
4518;DHT22;2271;49.464;11.070;2022-11-18T01:27:48;9.30;99.90
4518;DHT22;2271;49.464;11.070;2022-11-18T01:30:14;9.30;99.90
4518;DHT22;2271;49.464;11.070;2022-11-18T01:32:42;9.20;99.90
4518;DHT22;2271;49.464;11.070;2022-11-18T01:35:09;9.20;99.90
4518;DHT22;2271;49.464;11.070;2022-11-18T01:37:34;9.20;99.90
4518;DHT22;2271;49.464;11.070;2022-11-18T01:40:00;9.20;99.90
4518;DHT22;2271;49.464;11.070;2022-11-18T01:42:26;9.30;99.90
4518;DHT22;2271;49.464;11.070;2022-11-18T01:44:59;9.20;99.90
4518;DHT22;2271;49.464;11.070;2022-11-18T01:47:27;9.20;99.90
4518;DHT22;2271;49.464;11.070;2022-11-18T01:49:54;9.20;99.90
4518;DHT22;2271;49.464;11.070;2022-11-18T01:52:20;9.20;99.90
4518;DHT22;2271;49.464;11.070;2022-11-18T01:54:48;9.30;99.90
4518;DHT22;2271;49.464;11.070;2022-11-18T01:57:18;9.20;99.90
4518;DHT22;2271;49.464;11.070;2022-11-18T01:59:48;9.20;99.90
4518;DHT22;2271;49.464;11.070;2022-11-18T02:02:15;9.30;99.90
4518;DHT22;2271;49.464;11.070;2022-11-18T02:04:43;9.30;99.90
4518;DHT22;2271;49.464;11.070;2022-11-18T02:07:11;9.30;99.90
4518;DHT22;2271;49.464;11.070;2022-11-18T02:09:38;9.20;99.90
4518;DHT22;2271;49.464;11.070;2022-11-18T02:12:05;9.20;99.90
4518;DHT22;2271;49.464;11.070;2022-11-18T02:14:34;9.20;99.90
4518;DHT22;2271;49.464;11.070;2022-11-18T02:30:33;9.30;99.90
4518;DHT22;2271;49.464;11.070;2022-11-18T02:33:03;9.30;99.90
4518;DHT22;2271;49.464;11.070;2022-11-18T02:35:41;9.30;99.90
4518;DHT22;2271;49.464;11.070;2022-11-18T02:38:40;9.30;99.90
4518;DHT22;2271;49.464;11.070;2022-11-18T02:41:12;9.20;99.90
4518;DHT22;2271;49.464;11.070;2022-11-18T02:46:16;9.10;99.90
4518;DHT22;2271;49.464;11.070;2022-11-18T02:48:47;9.10;99.90
4518;DHT22;2271;49.464;11.070;2022-11-18T02:51:17;9.10;99.90
4518;DHT22;2271;49.464;11.070;2022-11-18T02:53:45;9.10;99.90
4518;DHT22;2271;49.464;11.070;2022-11-18T02:56:13;9.00;99.90
4518;DHT22;2271;49.464;11.070;2022-11-18T02:58:39;9.10;99.90
4518;DHT22;2271;49.464;11.070;2022-11-18T03:01:05;9.10;99.90
4518;DHT22;2271;49.464;11.070;2022-11-18T03:03:32;9.10;99.90
4518;DHT22;2271;49.464;11.070;2022-11-18T03:11:23;9.10;99.90
4518;DHT22;2271;49.464;11.070;2022-11-18T03:16:44;9.20;99.90
4518;DHT22;2271;49.464;11.070;2022-11-18T03:19:17;9.20;99.90
4518;DHT22;2271;49.464;11.070;2022-11-18T03:22:32;9.20;99.90
4518;DHT22;2271;49.464;11.070;2022-11-18T03:25:05;9.20;99.90
4518;DHT22;2271;49.464;11.070;2022-11-18T03:27:43;9.20;99.90
4518;DHT22;2271;49.464;11.070;2022-11-18T03:30:16;9.30;99.90
4518;DHT22;2271;49.464;11.070;2022-11-18T03:32:47;9.30;99.90
4518;DHT22;2271;49.464;11.070;2022-11-18T03:35:20;9.30;99.90
4518;DHT22;2271;49.464;11.070;2022-11-18T03:37:47;9.30;99.90
4518;DHT22;2271;49.464;11.070;2022-11-18T03:40:21;9.40;99.90
4518;DHT22;2271;49.464;11.070;2022-11-18T03:42:50;9.40;99.90
4518;DHT22;2271;49.464;11.070;2022-11-18T03:45:50;9.40;99.90
4518;DHT22;2271;49.464;11.070;2022-11-18T03:48:19;9.40;99.90
4518;DHT22;2271;49.464;11.070;2022-11-18T03:50:52;9.40;99.90
4518;DHT22;2271;49.464;11.070;2022-11-18T03:53:19;9.40;99.90
4518;DHT22;2271;49.464;11.070;2022-11-18T03:55:51;9.40;99.90
4518;DHT22;2271;49.464;11.070;2022-11-18T03:58:28;9.40;99.90
4518;DHT22;2271;49.464;11.070;2022-11-18T04:01:03;9.40;99.90
4518;DHT22;2271;49.464;11.070;2022-11-18T04:03:29;9.40;99.90
4518;DHT22;2271;49.464;11.070;2022-11-18T04:06:10;9.40;99.90
4518;DHT22;2271;49.464;11.070;2022-11-18T04:08:40;9.40;99.90
4518;DHT22;2271;49.464;11.070;2022-11-18T04:11:17;9.40;99.90
4518;DHT22;2271;49.464;11.070;2022-11-18T04:14:19;9.40;99.90
4518;DHT22;2271;49.464;11.070;2022-11-18T04:16:49;9.40;99.90
4518;DHT22;2271;49.464;11.070;2022-11-18T04:19:16;9.40;99.90
4518;DHT22;2271;49.464;11.070;2022-11-18T04:21:41;9.40;99.90
4518;DHT22;2271;49.464;11.070;2022-11-18T04:24:07;9.40;99.90
4518;DHT22;2271;49.464;11.070;2022-11-18T04:26:33;9.40;99.90
4518;DHT22;2271;49.464;11.070;2022-11-18T04:28:58;9.40;99.90
4518;DHT22;2271;49.464;11.070;2022-11-18T04:31:25;9.40;99.90
4518;DHT22;2271;49.464;11.070;2022-11-18T04:33:50;9.40;99.90
4518;DHT22;2271;49.464;11.070;2022-11-18T04:36:16;9.40;99.90
4518;DHT22;2271;49.464;11.070;2022-11-18T04:38:41;9.40;99.90
4518;DHT22;2271;49.464;11.070;2022-11-18T04:41:07;9.30;99.90
4518;DHT22;2271;49.464;11.070;2022-11-18T04:43:32;9.40;99.90
4518;DHT22;2271;49.464;11.070;2022-11-18T04:45:58;9.30;99.90
4518;DHT22;2271;49.464;11.070;2022-11-18T04:48:23;9.30;99.90
4518;DHT22;2271;49.464;11.070;2022-11-18T04:50:49;9.30;99.90
4518;DHT22;2271;49.464;11.070;2022-11-18T04:53:14;9.30;99.90
4518;DHT22;2271;49.464;11.070;2022-11-18T04:55:40;9.20;99.90
4518;DHT22;2271;49.464;11.070;2022-11-18T04:58:06;9.20;99.90
4518;DHT22;2271;49.464;11.070;2022-11-18T05:00:31;9.20;99.90
4518;DHT22;2271;49.464;11.070;2022-11-18T05:02:57;9.30;99.90
4518;DHT22;2271;49.464;11.070;2022-11-18T05:05:22;9.30;99.90
4518;DHT22;2271;49.464;11.070;2022-11-18T05:07:49;9.30;99.90
4518;DHT22;2271;49.464;11.070;2022-11-18T05:10:15;9.30;99.90
4518;DHT22;2271;49.464;11.070;2022-11-18T05:12:41;9.20;99.90
4518;DHT22;2271;49.464;11.070;2022-11-18T05:15:18;9.20;99.90
4518;DHT22;2271;49.464;11.070;2022-11-18T05:17:45;9.20;99.90
4518;DHT22;2271;49.464;11.070;2022-11-18T05:20:11;9.20;99.90
4518;DHT22;2271;49.464;11.070;2022-11-18T05:22:37;9.30;99.90
4518;DHT22;2271;49.464;11.070;2022-11-18T05:25:03;9.30;99.90
4518;DHT22;2271;49.464;11.070;2022-11-18T05:27:29;9.30;99.90
4518;DHT22;2271;49.464;11.070;2022-11-18T05:29:55;9.30;99.90
4518;DHT22;2271;49.464;11.070;2022-11-18T05:32:20;9.30;99.90
4518;DHT22;2271;49.464;11.070;2022-11-18T05:34:46;9.20;99.90
4518;DHT22;2271;49.464;11.070;2022-11-18T05:37:12;9.20;99.90
4518;DHT22;2271;49.464;11.070;2022-11-18T05:39:37;9.20;99.90
4518;DHT22;2271;49.464;11.070;2022-11-18T05:42:03;9.30;99.90
4518;DHT22;2271;49.464;11.070;2022-11-18T05:44:47;9.20;99.90
4518;DHT22;2271;49.464;11.070;2022-11-18T05:47:14;9.30;99.90
4518;DHT22;2271;49.464;11.070;2022-11-18T05:49:40;9.30;99.90
4518;DHT22;2271;49.464;11.070;2022-11-18T05:52:05;9.30;99.90
4518;DHT22;2271;49.464;11.070;2022-11-18T05:54:31;9.30;99.90
4518;DHT22;2271;49.464;11.070;2022-11-18T05:56:57;9.30;99.90
4518;DHT22;2271;49.464;11.070;2022-11-18T05:59:22;9.30;99.90
4518;DHT22;2271;49.464;11.070;2022-11-18T06:01:53;9.30;99.90
4518;DHT22;2271;49.464;11.070;2022-11-18T06:06:50;9.40;99.90
4518;DHT22;2271;49.464;11.070;2022-11-18T06:09:19;9.40;99.90
4518;DHT22;2271;49.464;11.070;2022-11-18T06:11:49;9.40;99.90
4518;DHT22;2271;49.464;11.070;2022-11-18T06:14:20;9.40;99.90
4518;DHT22;2271;49.464;11.070;2022-11-18T06:16:51;9.30;99.90
4518;DHT22;2271;49.464;11.070;2022-11-18T06:19:17;9.40;99.90
4518;DHT22;2271;49.464;11.070;2022-11-18T06:21:43;9.30;99.90
4518;DHT22;2271;49.464;11.070;2022-11-18T06:24:10;9.30;99.90
4518;DHT22;2271;49.464;11.070;2022-11-18T06:26:36;9.40;99.90
4518;DHT22;2271;49.464;11.070;2022-11-18T06:29:03;9.40;99.90
4518;DHT22;2271;49.464;11.070;2022-11-18T06:31:29;9.30;99.90
4518;DHT22;2271;49.464;11.070;2022-11-18T06:33:55;9.40;99.90
4518;DHT22;2271;49.464;11.070;2022-11-18T06:36:21;9.30;99.90
4518;DHT22;2271;49.464;11.070;2022-11-18T06:38:46;9.40;99.90
4518;DHT22;2271;49.464;11.070;2022-11-18T06:41:12;9.30;99.90
4518;DHT22;2271;49.464;11.070;2022-11-18T06:43:38;9.30;99.90
4518;DHT22;2271;49.464;11.070;2022-11-18T06:46:05;9.30;99.90
4518;DHT22;2271;49.464;11.070;2022-11-18T06:48:50;9.30;99.90
4518;DHT22;2271;49.464;11.070;2022-11-18T06:51:16;9.40;99.90
4518;DHT22;2271;49.464;11.070;2022-11-18T06:53:42;9.40;99.90
4518;DHT22;2271;49.464;11.070;2022-11-18T06:56:10;9.40;99.90
4518;DHT22;2271;49.464;11.070;2022-11-18T06:58:36;9.40;99.90
4518;DHT22;2271;49.464;11.070;2022-11-18T07:01:15;9.40;99.90
4518;DHT22;2271;49.464;11.070;2022-11-18T07:03:42;9.40;99.90
4518;DHT22;2271;49.464;11.070;2022-11-18T07:06:09;9.30;99.90
4518;DHT22;2271;49.464;11.070;2022-11-18T07:08:36;9.30;99.90
4518;DHT22;2271;49.464;11.070;2022-11-18T07:11:03;9.30;99.90
4518;DHT22;2271;49.464;11.070;2022-11-18T07:13:32;9.30;99.90
4518;DHT22;2271;49.464;11.070;2022-11-18T07:16:06;9.30;99.90
4518;DHT22;2271;49.464;11.070;2022-11-18T07:18:33;9.30;99.90
4518;DHT22;2271;49.464;11.070;2022-11-18T07:21:04;9.30;99.90
4518;DHT22;2271;49.464;11.070;2022-11-18T07:23:31;9.50;99.90
4518;DHT22;2271;49.464;11.070;2022-11-18T07:25:57;9.50;99.90
4518;DHT22;2271;49.464;11.070;2022-11-18T07:28:23;9.40;99.90
4518;DHT22;2271;49.464;11.070;2022-11-18T07:30:48;9.40;99.90
4518;DHT22;2271;49.464;11.070;2022-11-18T07:33:14;9.40;99.90
4518;DHT22;2271;49.464;11.070;2022-11-18T07:35:39;9.30;99.90
4518;DHT22;2271;49.464;11.070;2022-11-18T07:38:05;9.30;99.90
4518;DHT22;2271;49.464;11.070;2022-11-18T07:40:31;9.30;99.90
4518;DHT22;2271;49.464;11.070;2022-11-18T07:42:56;9.90;99.90
4518;DHT22;2271;49.464;11.070;2022-11-18T07:45:22;10.50;99.90
4518;DHT22;2271;49.464;11.070;2022-11-18T07:47:48;11.20;99.90
4518;DHT22;2271;49.464;11.070;2022-11-18T07:50:14;11.50;99.90
4518;DHT22;2271;49.464;11.070;2022-11-18T07:52:40;11.90;99.90
4518;DHT22;2271;49.464;11.070;2022-11-18T07:55:06;11.70;99.90
4518;DHT22;2271;49.464;11.070;2022-11-18T07:57:31;11.10;99.90
4518;DHT22;2271;49.464;11.070;2022-11-18T07:59:57;10.70;99.90
4518;DHT22;2271;49.464;11.070;2022-11-18T08:02:23;10.30;99.90
4518;DHT22;2271;49.464;11.070;2022-11-18T08:04:48;10.10;99.90
4518;DHT22;2271;49.464;11.070;2022-11-18T08:07:14;9.90;99.90
4518;DHT22;2271;49.464;11.070;2022-11-18T08:09:39;9.80;99.90
4518;DHT22;2271;49.464;11.070;2022-11-18T08:12:05;9.70;99.90
4518;DHT22;2271;49.464;11.070;2022-11-18T08:14:31;9.60;99.90
4518;DHT22;2271;49.464;11.070;2022-11-18T08:16:57;9.60;99.90
4518;DHT22;2271;49.464;11.070;2022-11-18T08:19:22;9.50;99.90
4518;DHT22;2271;49.464;11.070;2022-11-18T08:21:48;9.50;99.90
4518;DHT22;2271;49.464;11.070;2022-11-18T08:24:14;9.50;99.90
4518;DHT22;2271;49.464;11.070;2022-11-18T08:26:39;9.40;99.90
4518;DHT22;2271;49.464;11.070;2022-11-18T08:29:05;9.40;99.90
4518;DHT22;2271;49.464;11.070;2022-11-18T08:31:31;9.40;99.90
4518;DHT22;2271;49.464;11.070;2022-11-18T08:34:04;9.30;99.90
4518;DHT22;2271;49.464;11.070;2022-11-18T08:36:32;9.30;99.90
4518;DHT22;2271;49.464;11.070;2022-11-18T08:38:59;9.40;99.90
4518;DHT22;2271;49.464;11.070;2022-11-18T08:41:32;9.30;99.90
4518;DHT22;2271;49.464;11.070;2022-11-18T08:43:58;9.30;99.90
4518;DHT22;2271;49.464;11.070;2022-11-18T08:46:24;9.30;99.90
4518;DHT22;2271;49.464;11.070;2022-11-18T08:48:50;9.30;99.90
4518;DHT22;2271;49.464;11.070;2022-11-18T08:51:15;9.30;99.90
4518;DHT22;2271;49.464;11.070;2022-11-18T08:53:41;9.30;99.90
4518;DHT22;2271;49.464;11.070;2022-11-18T08:56:15;9.30;99.90
4518;DHT22;2271;49.464;11.070;2022-11-18T08:58:42;9.30;99.90
4518;DHT22;2271;49.464;11.070;2022-11-18T09:01:09;9.30;99.90
4518;DHT22;2271;49.464;11.070;2022-11-18T09:03:35;9.40;99.90
4518;DHT22;2271;49.464;11.070;2022-11-18T09:06:13;9.30;99.90
4518;DHT22;2271;49.464;11.070;2022-11-18T09:08:39;9.30;99.90
4518;DHT22;2271;49.464;11.070;2022-11-18T09:11:16;9.40;99.90
4518;DHT22;2271;49.464;11.070;2022-11-18T09:13:42;9.40;99.90
4518;DHT22;2271;49.464;11.070;2022-11-18T09:16:08;9.40;99.90
4518;DHT22;2271;49.464;11.070;2022-11-18T09:18:35;9.40;99.90
4518;DHT22;2271;49.464;11.070;2022-11-18T09:21:07;9.40;99.90
4518;DHT22;2271;49.464;11.070;2022-11-18T09:23:34;9.40;99.90
4518;DHT22;2271;49.464;11.070;2022-11-18T09:26:03;9.50;99.90
4518;DHT22;2271;49.464;11.070;2022-11-18T09:28:29;9.50;99.90
4518;DHT22;2271;49.464;11.070;2022-11-18T09:30:55;9.40;99.90
4518;DHT22;2271;49.464;11.070;2022-11-18T09:33:21;9.40;99.90
4518;DHT22;2271;49.464;11.070;2022-11-18T09:35:47;9.40;99.90
4518;DHT22;2271;49.464;11.070;2022-11-18T09:38:13;9.40;99.90
4518;DHT22;2271;49.464;11.070;2022-11-18T09:40:52;9.40;99.90
4518;DHT22;2271;49.464;11.070;2022-11-18T09:49:07;9.30;99.90
4518;DHT22;2271;49.464;11.070;2022-11-18T09:51:46;9.30;99.90
4518;DHT22;2271;49.464;11.070;2022-11-18T09:54:22;9.30;99.90
4518;DHT22;2271;49.464;11.070;2022-11-18T09:56:50;9.30;99.90
4518;DHT22;2271;49.464;11.070;2022-11-18T09:59:19;9.30;99.90
4518;DHT22;2271;49.464;11.070;2022-11-18T10:01:46;9.30;99.90
4518;DHT22;2271;49.464;11.070;2022-11-18T10:04:17;9.40;99.90
4518;DHT22;2271;49.464;11.070;2022-11-18T10:06:44;9.40;99.90
4518;DHT22;2271;49.464;11.070;2022-11-18T10:09:29;9.40;99.90
4518;DHT22;2271;49.464;11.070;2022-11-18T10:14:38;9.30;99.90
4518;DHT22;2271;49.464;11.070;2022-11-18T10:17:24;9.30;99.90
4518;DHT22;2271;49.464;11.070;2022-11-18T10:25:17;9.30;99.90
4518;DHT22;2271;49.464;11.070;2022-11-18T10:27:45;9.30;99.90
4518;DHT22;2271;49.464;11.070;2022-11-18T10:30:21;9.30;99.90
4518;DHT22;2271;49.464;11.070;2022-11-18T10:35:44;9.30;99.90
4518;DHT22;2271;49.464;11.070;2022-11-18T10:43:49;10.10;99.90
4518;DHT22;2271;49.464;11.070;2022-11-18T10:46:26;10.10;99.90
4518;DHT22;2271;49.464;11.070;2022-11-18T10:51:41;9.70;99.90
4518;DHT22;2271;49.464;11.070;2022-11-18T10:59:29;9.40;99.90
4518;DHT22;2271;49.464;11.070;2022-11-18T11:04:33;9.30;99.90
4518;DHT22;2271;49.464;11.070;2022-11-18T11:07:23;9.30;99.90
4518;DHT22;2271;49.464;11.070;2022-11-18T11:10:01;9.30;99.90
4518;DHT22;2271;49.464;11.070;2022-11-18T11:12:29;9.30;99.90
4518;DHT22;2271;49.464;11.070;2022-11-18T11:14:57;9.30;99.90
4518;DHT22;2271;49.464;11.070;2022-11-18T11:17:33;9.30;99.90
4518;DHT22;2271;49.464;11.070;2022-11-18T11:20:09;9.30;99.90
4518;DHT22;2271;49.464;11.070;2022-11-18T11:22:38;9.40;99.90
4518;DHT22;2271;49.464;11.070;2022-11-18T11:28:11;9.40;99.90
4518;DHT22;2271;49.464;11.070;2022-11-18T11:30:49;9.40;99.90
4518;DHT22;2271;49.464;11.070;2022-11-18T11:33:26;9.40;99.90
4518;DHT22;2271;49.464;11.070;2022-11-18T11:36:08;9.40;99.90
4518;DHT22;2271;49.464;11.070;2022-11-18T11:38:52;9.30;99.90
4518;DHT22;2271;49.464;11.070;2022-11-18T11:41:23;9.30;99.90
4518;DHT22;2271;49.464;11.070;2022-11-18T11:50:01;9.40;99.90
4518;DHT22;2271;49.464;11.070;2022-11-18T11:52:32;9.40;99.90
4518;DHT22;2271;49.464;11.070;2022-11-18T12:06:32;9.40;99.90
4518;DHT22;2271;49.464;11.070;2022-11-18T12:09:04;9.40;99.90
4518;DHT22;2271;49.464;11.070;2022-11-18T12:11:54;9.40;99.90
4518;DHT22;2271;49.464;11.070;2022-11-18T12:14:45;9.40;99.90
4518;DHT22;2271;49.464;11.070;2022-11-18T12:17:26;9.50;99.90
4518;DHT22;2271;49.464;11.070;2022-11-18T12:19:53;9.50;99.90
4518;DHT22;2271;49.464;11.070;2022-11-18T12:22:19;9.60;99.90
4518;DHT22;2271;49.464;11.070;2022-11-18T12:24:44;9.50;99.90
4518;DHT22;2271;49.464;11.070;2022-11-18T12:35:17;9.50;99.90
4518;DHT22;2271;49.464;11.070;2022-11-18T12:40:40;9.50;99.90
4518;DHT22;2271;49.464;11.070;2022-11-18T12:51:48;9.60;99.90
4518;DHT22;2271;49.464;11.070;2022-11-18T12:54:27;9.60;99.90
4518;DHT22;2271;49.464;11.070;2022-11-18T12:56:54;9.60;99.90
4518;DHT22;2271;49.464;11.070;2022-11-18T12:59:35;9.60;99.90
4518;DHT22;2271;49.464;11.070;2022-11-18T13:04:37;9.60;99.90
4518;DHT22;2271;49.464;11.070;2022-11-18T13:07:04;9.60;99.90
4518;DHT22;2271;49.464;11.070;2022-11-18T13:09:34;9.60;99.90
4518;DHT22;2271;49.464;11.070;2022-11-18T13:12:03;9.60;99.90
4518;DHT22;2271;49.464;11.070;2022-11-18T13:14:40;9.60;99.90
4518;DHT22;2271;49.464;11.070;2022-11-18T13:17:33;9.70;99.90
4518;DHT22;2271;49.464;11.070;2022-11-18T13:20:22;9.70;99.90
4518;DHT22;2271;49.464;11.070;2022-11-18T13:22:52;9.60;99.90
4518;DHT22;2271;49.464;11.070;2022-11-18T13:25:38;9.70;99.90
4518;DHT22;2271;49.464;11.070;2022-11-18T13:28:39;9.70;99.90
4518;DHT22;2271;49.464;11.070;2022-11-18T13:31:26;9.70;99.90
4518;DHT22;2271;49.464;11.070;2022-11-18T13:33:54;9.60;99.90
4518;DHT22;2271;49.464;11.070;2022-11-18T13:36:24;9.60;99.90
4518;DHT22;2271;49.464;11.070;2022-11-18T13:39:04;9.60;99.90
4518;DHT22;2271;49.464;11.070;2022-11-18T13:41:33;9.60;99.90
4518;DHT22;2271;49.464;11.070;2022-11-18T13:44:23;9.50;99.90
4518;DHT22;2271;49.464;11.070;2022-11-18T13:47:11;9.50;99.90
4518;DHT22;2271;49.464;11.070;2022-11-18T13:52:44;9.50;99.90
4518;DHT22;2271;49.464;11.070;2022-11-18T13:55:20;9.50;99.90
4518;DHT22;2271;49.464;11.070;2022-11-18T13:57:57;9.60;99.90
4518;DHT22;2271;49.464;11.070;2022-11-18T14:00:27;9.50;99.90
4518;DHT22;2271;49.464;11.070;2022-11-18T14:02:56;9.50;99.90
4518;DHT22;2271;49.464;11.070;2022-11-18T14:05:24;9.50;99.90
4518;DHT22;2271;49.464;11.070;2022-11-18T14:08:03;9.60;99.90
4518;DHT22;2271;49.464;11.070;2022-11-18T14:10:39;9.60;99.90
4518;DHT22;2271;49.464;11.070;2022-11-18T14:13:33;9.60;99.90
4518;DHT22;2271;49.464;11.070;2022-11-18T14:16:02;9.60;99.90
4518;DHT22;2271;49.464;11.070;2022-11-18T14:18:48;9.60;99.90
4518;DHT22;2271;49.464;11.070;2022-11-18T14:21:32;9.60;99.90
4518;DHT22;2271;49.464;11.070;2022-11-18T14:23:59;9.60;99.90
4518;DHT22;2271;49.464;11.070;2022-11-18T14:26:35;9.60;99.90
4518;DHT22;2271;49.464;11.070;2022-11-18T14:29:13;9.50;99.90
4518;DHT22;2271;49.464;11.070;2022-11-18T14:31:41;9.60;99.90
4518;DHT22;2271;49.464;11.070;2022-11-18T14:34:24;9.60;99.90
4518;DHT22;2271;49.464;11.070;2022-11-18T14:36:51;9.60;99.90
4518;DHT22;2271;49.464;11.070;2022-11-18T14:39:28;9.60;99.90
4518;DHT22;2271;49.464;11.070;2022-11-18T14:41:55;9.60;99.90
4518;DHT22;2271;49.464;11.070;2022-11-18T14:44:24;9.60;99.90
4518;DHT22;2271;49.464;11.070;2022-11-18T14:46:54;9.60;99.90
4518;DHT22;2271;49.464;11.070;2022-11-18T14:49:24;9.60;99.90
4518;DHT22;2271;49.464;11.070;2022-11-18T14:51:51;9.60;99.90
4518;DHT22;2271;49.464;11.070;2022-11-18T14:54:19;9.60;99.90
4518;DHT22;2271;49.464;11.070;2022-11-18T14:56:47;9.60;99.90
4518;DHT22;2271;49.464;11.070;2022-11-18T14:59:15;9.60;99.90
4518;DHT22;2271;49.464;11.070;2022-11-18T15:01:41;9.60;99.90
4518;DHT22;2271;49.464;11.070;2022-11-18T15:04:08;9.60;99.90
4518;DHT22;2271;49.464;11.070;2022-11-18T15:06:34;9.50;99.90
4518;DHT22;2271;49.464;11.070;2022-11-18T15:08:59;9.60;99.90
4518;DHT22;2271;49.464;11.070;2022-11-18T15:11:25;9.60;99.90
4518;DHT22;2271;49.464;11.070;2022-11-18T15:13:50;9.50;99.90
4518;DHT22;2271;49.464;11.070;2022-11-18T15:16:19;9.50;99.90
4518;DHT22;2271;49.464;11.070;2022-11-18T15:18:47;9.50;99.90
4518;DHT22;2271;49.464;11.070;2022-11-18T15:21:14;9.50;99.90
4518;DHT22;2271;49.464;11.070;2022-11-18T15:23:39;9.50;99.90
4518;DHT22;2271;49.464;11.070;2022-11-18T15:26:21;9.50;99.90
4518;DHT22;2271;49.464;11.070;2022-11-18T15:28:49;9.50;99.90
4518;DHT22;2271;49.464;11.070;2022-11-18T15:31:16;9.50;99.90
4518;DHT22;2271;49.464;11.070;2022-11-18T15:33:42;9.50;99.90
4518;DHT22;2271;49.464;11.070;2022-11-18T15:36:11;9.50;99.90
4518;DHT22;2271;49.464;11.070;2022-11-18T15:38:37;9.60;99.90
4518;DHT22;2271;49.464;11.070;2022-11-18T15:41:03;9.60;99.90
4518;DHT22;2271;49.464;11.070;2022-11-18T15:43:28;9.50;99.90
4518;DHT22;2271;49.464;11.070;2022-11-18T15:45:58;9.50;99.90
4518;DHT22;2271;49.464;11.070;2022-11-18T15:48:24;9.50;99.90
4518;DHT22;2271;49.464;11.070;2022-11-18T15:50:49;9.50;99.90
4518;DHT22;2271;49.464;11.070;2022-11-18T15:53:15;9.50;99.90
4518;DHT22;2271;49.464;11.070;2022-11-18T15:55:41;9.50;99.90
4518;DHT22;2271;49.464;11.070;2022-11-18T15:58:07;9.50;99.90
4518;DHT22;2271;49.464;11.070;2022-11-18T16:00:33;9.50;99.90
4518;DHT22;2271;49.464;11.070;2022-11-18T16:02:58;9.50;99.90
4518;DHT22;2271;49.464;11.070;2022-11-18T16:05:24;9.50;99.90
4518;DHT22;2271;49.464;11.070;2022-11-18T16:07:49;9.50;99.90
4518;DHT22;2271;49.464;11.070;2022-11-18T16:10:15;9.50;99.90
4518;DHT22;2271;49.464;11.070;2022-11-18T16:13:00;9.50;99.90
4518;DHT22;2271;49.464;11.070;2022-11-18T16:15:25;9.50;99.90
4518;DHT22;2271;49.464;11.070;2022-11-18T16:18:13;9.50;99.90
4518;DHT22;2271;49.464;11.070;2022-11-18T16:20:39;9.50;99.90
4518;DHT22;2271;49.464;11.070;2022-11-18T16:23:05;9.50;99.90
4518;DHT22;2271;49.464;11.070;2022-11-18T16:25:30;9.50;99.90
4518;DHT22;2271;49.464;11.070;2022-11-18T16:27:56;9.40;99.90
4518;DHT22;2271;49.464;11.070;2022-11-18T16:30:22;9.50;99.90
4518;DHT22;2271;49.464;11.070;2022-11-18T16:33:06;9.50;99.90
4518;DHT22;2271;49.464;11.070;2022-11-18T16:35:31;9.50;99.90
4518;DHT22;2271;49.464;11.070;2022-11-18T16:37:57;9.50;99.90
4518;DHT22;2271;49.464;11.070;2022-11-18T16:40:23;9.50;99.90
4518;DHT22;2271;49.464;11.070;2022-11-18T16:42:51;9.50;99.90
4518;DHT22;2271;49.464;11.070;2022-11-18T16:45:18;9.50;99.90
4518;DHT22;2271;49.464;11.070;2022-11-18T16:47:44;9.50;99.90
4518;DHT22;2271;49.464;11.070;2022-11-18T16:50:10;9.50;99.90
4518;DHT22;2271;49.464;11.070;2022-11-18T16:52:36;9.50;99.90
4518;DHT22;2271;49.464;11.070;2022-11-18T16:55:02;9.50;99.90
4518;DHT22;2271;49.464;11.070;2022-11-18T16:57:28;9.50;99.90
4518;DHT22;2271;49.464;11.070;2022-11-18T16:59:55;9.50;99.90
4518;DHT22;2271;49.464;11.070;2022-11-18T17:02:21;9.50;99.90
4518;DHT22;2271;49.464;11.070;2022-11-18T17:04:48;9.50;99.90
4518;DHT22;2271;49.464;11.070;2022-11-18T17:07:13;9.50;99.90
4518;DHT22;2271;49.464;11.070;2022-11-18T17:09:39;9.50;99.90
4518;DHT22;2271;49.464;11.070;2022-11-18T17:12:05;9.50;99.90
4518;DHT22;2271;49.464;11.070;2022-11-18T17:14:31;9.50;99.90
4518;DHT22;2271;49.464;11.070;2022-11-18T17:16:56;9.50;99.90
4518;DHT22;2271;49.464;11.070;2022-11-18T17:19:23;9.50;99.90
4518;DHT22;2271;49.464;11.070;2022-11-18T17:21:50;9.50;99.90
4518;DHT22;2271;49.464;11.070;2022-11-18T17:24:19;9.50;99.90
4518;DHT22;2271;49.464;11.070;2022-11-18T17:26:45;9.50;99.90
4518;DHT22;2271;49.464;11.070;2022-11-18T17:29:11;9.50;99.90
4518;DHT22;2271;49.464;11.070;2022-11-18T17:31:38;9.50;99.90
4518;DHT22;2271;49.464;11.070;2022-11-18T17:34:04;9.50;99.90
4518;DHT22;2271;49.464;11.070;2022-11-18T17:36:30;9.50;99.90
4518;DHT22;2271;49.464;11.070;2022-11-18T17:38:57;9.30;99.90
4518;DHT22;2271;49.464;11.070;2022-11-18T17:41:25;9.20;99.90
4518;DHT22;2271;49.464;11.070;2022-11-18T17:44:11;9.30;99.90
4518;DHT22;2271;49.464;11.070;2022-11-18T17:46:37;9.20;99.90
4518;DHT22;2271;49.464;11.070;2022-11-18T17:49:05;9.20;99.90
4518;DHT22;2271;49.464;11.070;2022-11-18T17:51:31;9.20;99.90
4518;DHT22;2271;49.464;11.070;2022-11-18T17:53:57;9.30;99.90
4518;DHT22;2271;49.464;11.070;2022-11-18T17:56:23;9.30;99.90
4518;DHT22;2271;49.464;11.070;2022-11-18T17:58:49;9.30;99.90
4518;DHT22;2271;49.464;11.070;2022-11-18T18:01:17;9.30;99.90
4518;DHT22;2271;49.464;11.070;2022-11-18T18:03:43;9.40;99.90